Du har inga inställningar för hoppväder.nu

Hoppväder.nu

Senast uppdaterat 00:20

UTC-tid

2019-10-20 kl. 22:20


Sol och måne

Solen går upp 8:05 och går ner 18:19 (beräknade cirkatider)
Nästa fullmåne blir om 22 dagar (2019-11-12)

METAR

ESSD (Borlänge)
(30 minuter sedan)
ESSD 202150Z AUTO 35006KT 6000 BR OVC002/// 03/02 Q1015=



ESOE (Örebro)
(30 minuter sedan)
ESOE 202150Z AUTO 35005KT 0350 R01/1600D R19/1000N FG NCD 09/08 Q1013=



ESOW (Västerås)
(30 minuter sedan)
ESOW 202150Z AUTO 36006KT 9999 BKN004/// OVC010/// 07/06 Q1014=



ESOK (Karlstad)
(30 minuter sedan)
ESOK 202150Z AUTO 34006KT 9999 OVC002/// 05/05 Q1014=






TAF

ESSD (Borlänge)
ESSD



ESOE (Örebro)
(28 minuter sedan)
ESOE AMD 202152Z 2021/2022 35005KT 0400 FG OVC002 PROB40 2021/2022 1000 BR SCT002=



ESOW (Västerås)
ESOW



ESOK (Karlstad)
ESOK





Kodnycklar till TAF och METAR






LHP

(Borlänge är område F2a i Norra delen)

Prognos är inte uppdaterad




Spotting

Hur fungerar spotthjälpen och Vindkartan?

Markvind är ca 0 m/s.



Vindkartan

Senast uppdaterad 00:20




All data kommer från LFV.se